Time;durP1;ratioP1;P1;durP2;ratioP2;P2;SDS_P1;SDS_P2;PMS_P1;PMS_P2;Temp;Humidity;BMP_temperature;BMP_pressure;BME280_temperature;BME280_humidity;BME280_pressure;Samples;Min_cycle;Max_cycle;Signal;HPM_P1;HPM_P2
2024/01/19 00:00:09;;;;;;;8.02;3.60;;;;;;;-2.47;70.34;100210.78;5036368;28;20045;-79
2024/01/19 00:02:36;;;;;;;9.52;4.10;;;;;;;-2.50;69.90;100213.16;5048771;28;20045;-81
2024/01/19 00:05:04;;;;;;;9.77;3.53;;;;;;;-2.54;70.62;100209.56;5047297;28;20099;-81
2024/01/19 00:07:31;;;;;;;6.60;3.60;;;;;;;-2.56;70.70;100218.78;5049024;28;20069;-81
2024/01/19 00:09:58;;;;;;;9.20;4.30;;;;;;;-2.59;70.02;100214.44;5047230;28;20049;-81
2024/01/19 00:12:25;;;;;;;10.15;3.70;;;;;;;-2.61;70.88;100221.06;5044730;28;20060;-81
2024/01/19 00:14:52;;;;;;;10.65;3.90;;;;;;;-2.63;70.90;100227.72;5045787;28;20515;-81
2024/01/19 00:17:45;;;;;;;9.35;2.75;;;;;;;-2.66;70.86;100222.50;5045466;28;20042;-81
2024/01/19 00:20:34;;;;;;;7.05;3.55;;;;;;;-2.67;70.75;100230.03;5039195;28;20041;-80
2024/01/19 00:23:44;;;;;;;4.30;2.03;;;;;;;-2.73;70.90;100230.56;5030918;28;20049;-80
2024/01/19 00:26:16;;;;;;;3.25;1.77;;;;;;;-2.77;72.06;100228.66;5032504;28;20053;-81
2024/01/19 00:28:44;;;;;;;7.40;3.80;;;;;;;-2.76;72.11;100227.84;5036328;28;20455;-81
2024/01/19 00:31:10;;;;;;;8.35;3.50;;;;;;;-2.79;71.77;100220.06;5033294;28;20045;-81
2024/01/19 00:33:37;;;;;;;5.35;3.03;;;;;;;-2.79;71.21;100231.09;5058886;28;20045;-79
2024/01/19 00:36:05;;;;;;;5.55;2.03;;;;;;;-2.86;71.69;100219.75;5051157;28;20045;-81
2024/01/19 00:38:31;;;;;;;8.45;2.83;;;;;;;-2.88;72.07;100223.88;5051862;28;20049;-81
2024/01/19 00:40:58;;;;;;;7.50;3.58;;;;;;;-2.87;71.78;100233.19;5045999;28;20053;-81
2024/01/19 00:43:25;;;;;;;4.07;1.83;;;;;;;-2.91;72.50;100231.28;5034594;28;20057;-81
2024/01/19 00:45:52;;;;;;;2.47;1.77;;;;;;;-2.93;72.40;100232.88;5052413;28;20534;-81
2024/01/19 00:48:20;;;;;;;8.10;3.00;;;;;;;-2.95;72.71;100231.91;5033364;28;20080;-81
2024/01/19 00:50:48;;;;;;;5.18;2.95;;;;;;;-2.95;73.09;100234.44;5032880;28;20057;-81
2024/01/19 00:53:17;;;;;;;2.50;1.30;;;;;;;-2.94;72.35;100236.19;5029539;28;20064;-81
2024/01/19 00:55:43;;;;;;;10.13;4.60;;;;;;;-2.93;71.94;100237.97;5032872;28;20101;-81
2024/01/19 00:58:12;;;;;;;7.03;3.30;;;;;;;-2.92;71.91;100241.34;5032533;28;20096;-81
2024/01/19 01:00:57;;;;;;;9.98;2.13;;;;;;;-2.95;72.00;100239.53;5026765;28;20084;-81
2024/01/19 01:03:35;;;;;;;16.77;5.53;;;;;;;-2.93;72.64;100242.13;5020264;28;20053;-81
2024/01/19 01:06:03;;;;;;;11.40;5.05;;;;;;;-2.93;72.46;100237.97;5031978;28;20050;-80
2024/01/19 01:08:35;;;;;;;7.68;3.42;;;;;;;-2.93;71.66;100248.09;5032586;28;20063;-81
2024/01/19 01:11:05;;;;;;;17.52;6.03;;;;;;;-2.91;71.86;100246.50;5018531;28;23690;-80
2024/01/19 01:13:33;;;;;;;20.00;6.78;;;;;;;-2.91;71.96;100251.56;5029568;28;20521;-81
2024/01/19 01:16:02;;;;;;;28.75;9.90;;;;;;;-2.91;71.82;100256.63;5025028;28;20073;-81
2024/01/19 01:18:30;;;;;;;12.45;4.95;;;;;;;-2.91;72.08;100259.19;5024304;28;20490;-81
2024/01/19 01:20:58;;;;;;;45.25;12.45;;;;;;;-2.92;71.77;100261.63;5029236;28;20042;-81
2024/01/19 01:23:25;;;;;;;9.88;4.55;;;;;;;-2.94;71.68;100264.06;5036764;28;20054;-80
2024/01/19 01:25:55;;;;;;;10.23;4.47;;;;;;;-2.96;71.38;100268.19;5043291;28;20044;-81
2024/01/19 01:28:23;;;;;;;5.03;2.40;;;;;;;-2.99;71.14;100266.38;5038627;28;20045;-80
2024/01/19 01:30:51;;;;;;;9.13;4.10;;;;;;;-3.01;71.56;100267.09;5050944;28;20386;-81
2024/01/19 01:33:21;;;;;;;7.75;2.88;;;;;;;-3.02;71.17;100267.84;5047069;28;20056;-81
2024/01/19 01:35:49;;;;;;;;;;;;;;;-3.06;71.83;100276.06;5052321;28;20057;-81
2024/01/19 01:38:17;;;;;;;6.35;3.08;;;;;;;-3.08;71.00;100277.66;5052304;28;20016;-81
2024/01/19 01:40:45;;;;;;;5.35;2.70;;;;;;;-3.11;71.21;100280.88;5044129;28;20052;-81
2024/01/19 01:43:23;;;;;;;8.27;3.20;;;;;;;-3.15;71.42;100279.84;5051322;28;20350;-80
2024/01/19 01:45:51;;;;;;;5.45;2.70;;;;;;;-3.18;71.49;100266.13;5037179;28;20107;-81
2024/01/19 01:48:23;;;;;;;8.90;3.20;;;;;;;-3.22;71.17;100275.19;5044266;28;20069;-81
2024/01/19 01:50:54;;;;;;;6.90;3.00;;;;;;;-3.25;71.12;100280.09;5035444;28;20045;-81
2024/01/19 01:53:23;;;;;;;5.75;2.65;;;;;;;-3.27;71.12;100281.69;5046927;28;20056;-82
2024/01/19 01:55:51;;;;;;;17.75;6.20;;;;;;;-3.31;70.88;100280.63;5041022;28;20057;-81
2024/01/19 01:58:18;;;;;;;14.40;6.28;;;;;;;-3.31;70.77;100280.63;5044421;28;20180;-81
2024/01/19 02:00:46;;;;;;;6.20;3.05;;;;;;;-3.31;71.66;100280.63;5049766;28;20513;-81
2024/01/19 02:03:14;;;;;;;7.80;3.55;;;;;;;-3.31;71.00;100283.16;5051604;28;20095;-80
2024/01/19 02:05:41;;;;;;;4.63;2.53;;;;;;;-3.32;71.51;100285.63;5046371;28;20041;-81
2024/01/19 02:08:08;;;;;;;12.07;4.13;;;;;;;-3.33;71.65;100287.25;5051303;28;20040;-81
2024/01/19 02:10:36;;;;;;;4.20;2.42;;;;;;;-3.34;71.51;100292.25;5051079;28;20045;-81
2024/01/19 02:13:04;;;;;;;10.88;3.60;;;;;;;-3.36;71.47;100293.03;5048831;28;20048;-81
2024/01/19 02:15:34;;;;;;;5.70;2.67;;;;;;;-3.36;71.54;100298.09;5040255;28;20435;-81
2024/01/19 02:18:01;;;;;;;5.07;2.72;;;;;;;-3.39;71.34;100295.38;5034663;28;20179;-81
2024/01/19 02:20:28;;;;;;;7.05;2.67;;;;;;;-3.37;71.61;100300.53;5050128;28;20068;-81
2024/01/19 02:22:55;;;;;;;6.13;2.35;;;;;;;-3.40;71.49;100301.25;5052617;28;20187;-82
2024/01/19 02:25:22;;;;;;;6.47;3.25;;;;;;;-3.40;71.31;100303.78;5056309;28;20052;-81
2024/01/19 02:27:49;;;;;;;5.28;1.88;;;;;;;-3.43;71.81;100306.13;5056700;28;20115;-81
2024/01/19 02:30:16;;;;;;;5.30;2.40;;;;;;;-3.43;71.83;100311.19;5047386;28;20072;-81
2024/01/19 02:32:44;;;;;;;7.13;2.85;;;;;;;-3.43;71.59;100316.25;5041664;28;20052;-81
2024/01/19 02:35:11;;;;;;;5.50;3.22;;;;;;;-3.44;71.22;100319.59;5047763;28;20167;-81
2024/01/19 02:37:41;;;;;;;9.57;2.72;;;;;;;-3.44;71.46;100319.59;5053297;28;20413;-81
2024/01/19 02:40:10;;;;;;;4.60;2.40;;;;;;;-3.45;71.42;100311.91;5054147;28;20048;-81
2024/01/19 02:42:37;;;;;;;9.10;2.83;;;;;;;-3.46;71.40;100316.06;5041110;28;20136;-82
2024/01/19 02:45:05;;;;;;;4.45;2.75;;;;;;;-3.46;71.47;100316.06;5025621;28;20049;-81
2024/01/19 02:47:31;;;;;;;4.95;2.78;;;;;;;-3.49;71.39;100315.88;5045361;28;20485;-81
2024/01/19 02:50:01;;;;;;;6.03;3.13;;;;;;;-3.47;72.07;100324.47;5030617;28;20052;-81
2024/01/19 02:52:28;;;;;;;3.70;2.28;;;;;;;-3.48;72.13;100322.69;5038368;28;20045;-82
2024/01/19 02:54:55;;;;;;;4.88;2.78;;;;;;;-3.49;71.68;100320.94;5059393;28;20055;-81
2024/01/19 02:57:22;;;;;;;4.25;1.67;;;;;;;-3.51;72.51;100328.47;5048213;28;20060;-81
2024/01/19 02:59:50;;;;;;;2.80;2.13;;;;;;;-3.52;72.16;100330.91;5054471;28;20448;-81
2024/01/19 03:02:17;;;;;;;0.95;0.88;;;;;;;-3.53;71.87;100332.56;5046350;28;20509;-81
2024/01/19 03:04:45;;;;;;;3.97;1.98;;;;;;;-3.52;72.28;100335.97;5054933;28;20053;-81
2024/01/19 03:07:12;;;;;;;6.07;2.75;;;;;;;-3.51;72.48;100347.88;5058658;28;20099;-81
2024/01/19 03:09:39;;;;;;;5.97;2.80;;;;;;;-3.51;71.85;100347.88;5055227;28;20144;-81
2024/01/19 03:12:06;;;;;;;3.92;1.90;;;;;;;-3.51;71.92;100348.72;5051495;28;20037;-81
2024/01/19 03:14:34;;;;;;;7.57;2.25;;;;;;;-3.52;71.81;100352.03;5054340;28;20045;-81
2024/01/19 03:17:01;;;;;;;5.97;2.40;;;;;;;-3.53;72.28;100349.41;5045260;28;20147;-81
2024/01/19 03:19:28;;;;;;;3.80;2.58;;;;;;;-3.54;71.78;100352.75;5037604;28;20074;-81
2024/01/19 03:21:55;;;;;;;6.50;2.83;;;;;;;-3.55;72.11;100356.91;5033415;28;20063;-81
2024/01/19 03:24:22;;;;;;;4.47;2.53;;;;;;;-3.57;71.97;100355.09;5052429;28;20045;-81
2024/01/19 03:26:48;;;;;;;13.10;2.60;;;;;;;-3.58;71.90;100360.94;5036347;28;20045;-81
2024/01/19 03:29:15;;;;;;;3.47;1.40;;;;;;;-3.61;71.86;100362.50;5024486;28;20045;-82
2024/01/19 03:31:42;;;;;;;4.13;1.65;;;;;;;-3.62;71.86;100359.88;5034510;28;20418;-81
2024/01/19 03:34:12;;;;;;;8.88;2.90;;;;;;;-3.64;72.11;100357.25;5034965;28;20061;-81
2024/01/19 03:36:45;;;;;;;8.32;2.40;;;;;;;-3.66;71.82;100358.81;5033028;28;20045;-82
2024/01/19 03:39:12;;;;;;;4.78;1.90;;;;;;;-3.69;72.14;100351.03;5027223;28;20092;-82
2024/01/19 03:41:39;;;;;;;3.22;2.13;;;;;;;-3.70;71.79;100351.81;5031641;28;20136;-82
2024/01/19 03:44:06;;;;;;;6.05;2.45;;;;;;;-3.74;71.41;100352.44;5034174;28;20075;-82
2024/01/19 03:46:33;;;;;;;4.22;1.92;;;;;;;-3.75;71.84;100360.81;5036115;28;20045;-82
2024/01/19 03:49:00;;;;;;;3.70;1.92;;;;;;;-3.79;72.24;100351.25;5044595;28;20073;-81
2024/01/19 03:51:28;;;;;;;6.18;2.80;;;;;;;-3.81;71.79;100360.44;5045898;28;20164;-81
2024/01/19 03:53:54;;;;;;;5.88;2.50;;;;;;;-3.82;71.91;100363.75;5045264;28;20045;-82
2024/01/19 03:56:21;;;;;;;7.57;2.50;;;;;;;-3.83;71.61;100364.50;5041033;28;20136;-82
2024/01/19 03:58:48;;;;;;;4.43;2.00;;;;;;;-3.84;71.52;100362.78;5049291;28;20100;-82
2024/01/19 04:01:15;;;;;;;4.70;2.40;;;;;;;-3.84;72.14;100367.84;5034953;28;20059;-81
2024/01/19 04:03:44;;;;;;;4.45;2.45;;;;;;;-3.85;71.67;100361.88;5050658;28;20065;-81
2024/01/19 04:06:11;;;;;;;4.68;2.15;;;;;;;-3.84;71.86;100372.91;5048158;28;20045;-82
2024/01/19 04:08:38;;;;;;;3.00;1.77;;;;;;;-3.81;71.90;100373.09;5043776;28;20100;-82
2024/01/19 04:11:05;;;;;;;6.93;2.60;;;;;;;-3.80;71.62;100374.84;5045935;28;20167;-81
2024/01/19 04:13:32;;;;;;;6.30;2.65;;;;;;;-3.81;71.91;100378.16;5051286;28;20129;-82
2024/01/19 04:15:59;;;;;;;6.13;2.40;;;;;;;-3.81;72.07;100383.22;5043109;28;20470;-82
2024/01/19 04:18:26;;;;;;;6.35;2.92;;;;;;;-3.83;71.60;100387.28;5052918;28;20564;-82
2024/01/19 04:20:53;;;;;;;6.90;1.73;;;;;;;-3.83;72.07;100389.81;5050125;28;20068;-82
2024/01/19 04:23:19;;;;;;;3.95;2.17;;;;;;;-3.84;72.06;100395.69;5043796;28;20045;-82
2024/01/19 04:25:46;;;;;;;4.70;2.05;;;;;;;-3.86;71.53;100390.53;5046152;28;20107;-82
2024/01/19 04:28:13;;;;;;;5.90;2.40;;;;;;;-3.88;71.47;100395.47;5051785;28;20053;-82
2024/01/19 04:30:40;;;;;;;4.25;3.45;;;;;;;-3.88;71.98;100400.53;5048451;28;20468;-82
2024/01/19 04:33:07;;;;;;;3.88;2.63;;;;;;;-3.91;71.59;100395.31;5042410;28;20532;-81
2024/01/19 04:35:34;;;;;;;6.88;2.47;;;;;;;-3.90;71.69;100399.59;5046578;28;20398;-81
2024/01/19 04:38:01;;;;;;;6.30;2.47;;;;;;;-3.92;71.55;100397.75;5050174;28;20053;-81
2024/01/19 04:40:29;;;;;;;3.63;2.05;;;;;;;-3.92;71.24;100401.13;5044357;28;20040;-83
2024/01/19 04:42:57;;;;;;;3.75;1.85;;;;;;;-3.93;71.94;100401.94;5050251;28;20084;-81
2024/01/19 04:45:25;;;;;;;7.28;2.45;;;;;;;-3.94;71.65;100397.66;5051230;28;20049;-81
2024/01/19 04:47:52;;;;;;;4.25;1.70;;;;;;;-3.95;71.60;100398.41;5051645;28;20044;-83
2024/01/19 04:50:19;;;;;;;3.47;2.20;;;;;;;-3.93;71.65;100404.47;5044993;28;20040;-83
2024/01/19 04:52:46;;;;;;;5.63;1.88;;;;;;;-3.95;72.10;100406.00;5052482;28;20184;-83
2024/01/19 04:55:13;;;;;;;5.13;2.85;;;;;;;-3.94;72.44;100407.78;5048809;28;20136;-83
2024/01/19 04:57:40;;;;;;;4.68;2.75;;;;;;;-3.93;71.85;100413.69;5052417;28;20077;-81
2024/01/19 05:00:07;;;;;;;2.25;1.35;;;;;;;-3.94;72.17;100411.94;5044006;28;20045;-80
2024/01/19 05:02:34;;;;;;;3.67;2.20;;;;;;;-3.94;71.89;100412.84;5047959;28;20402;-82
2024/01/19 05:05:01;;;;;;;3.65;1.77;;;;;;;-3.94;72.24;100417.03;5045837;28;20409;-83
2024/01/19 05:07:28;;;;;;;6.07;2.53;;;;;;;-3.93;72.18;100416.22;5048882;28;20099;-80
2024/01/19 05:09:55;;;;;;;4.88;2.53;;;;;;;-3.94;72.01;100417.91;5051994;28;20056;-83
2024/01/19 05:12:22;;;;;;;5.40;2.03;;;;;;;-3.93;72.19;100419.66;5033988;28;20112;-83
2024/01/19 05:14:50;;;;;;;2.72;1.98;;;;;;;-3.92;72.17;100416.31;5041020;28;20051;-83
2024/01/19 05:17:18;;;;;;;4.15;2.58;;;;;;;-3.92;72.15;100418.84;5030667;28;20156;-83
2024/01/19 05:19:46;;;;;;;3.40;1.75;;;;;;;-3.92;72.34;100416.31;5032225;28;20052;-83
2024/01/19 05:22:13;;;;;;;3.60;1.42;;;;;;;-3.92;72.01;100421.38;5031149;28;20044;-83
2024/01/19 05:24:42;;;;;;;3.97;1.80;;;;;;;-3.93;72.17;100419.66;5026416;28;20173;-83
2024/01/19 05:27:09;;;;;;;2.30;0.57;;;;;;;-3.93;72.56;100422.19;5047924;28;20567;-83
2024/01/19 05:29:37;;;;;;;5.45;2.65;;;;;;;-3.94;72.32;100422.97;5041881;28;20071;-83
2024/01/19 05:32:05;;;;;;;4.00;1.90;;;;;;;-3.93;71.89;100426.34;5034991;28;20566;-83
2024/01/19 05:34:33;;;;;;;4.05;1.70;;;;;;;-3.96;72.44;100424.50;5029765;28;20045;-83
2024/01/19 05:37:00;;;;;;;3.83;2.38;;;;;;;-3.98;72.60;100428.63;5028218;28;20060;-83
2024/01/19 05:39:27;;;;;;;4.07;2.20;;;;;;;-3.97;72.71;100437.06;5028767;28;20112;-82
2024/01/19 05:41:55;;;;;;;3.13;1.95;;;;;;;-3.99;72.38;100439.50;5027051;28;20046;-82
2024/01/19 05:44:22;;;;;;;6.78;2.03;;;;;;;-4.03;72.42;100435.91;5032229;28;20115;-83
2024/01/19 05:46:49;;;;;;;3.08;1.80;;;;;;;-4.04;72.56;100435.81;5032191;28;20096;-82
2024/01/19 05:49:17;;;;;;;5.70;1.85;;;;;;;-4.05;72.40;100445.06;5023552;28;20133;-83
2024/01/19 05:51:44;;;;;;;2.70;1.60;;;;;;;-4.05;72.22;100439.13;5015591;28;20077;-82
2024/01/19 05:54:11;;;;;;;4.82;1.80;;;;;;;-4.05;72.67;100444.19;5031425;28;20046;-82
2024/01/19 05:56:38;;;;;;;2.75;1.73;;;;;;;-4.03;72.87;100438.44;5027267;28;20049;-81
2024/01/19 05:59:05;;;;;;;4.43;1.88;;;;;;;-4.04;72.41;100446.81;5021593;28;20427;-82
2024/01/19 06:01:32;;;;;;;3.63;1.75;;;;;;;-4.04;72.55;100436.69;5026264;28;20045;-83
2024/01/19 06:04:00;;;;;;;6.47;2.20;;;;;;;-4.06;73.21;100439.91;5043368;28;20045;-83
2024/01/19 06:06:28;;;;;;;4.90;1.75;;;;;;;-4.05;72.29;100444.19;5044985;28;20053;-83
2024/01/19 06:09:08;;;;;;;5.20;1.65;;;;;;;-4.06;72.38;100452.56;5007634;27;20403;-49
2024/01/19 06:11:34;;;;;;;3.60;3.17;;;;;;;-4.09;72.74;100448.16;4988605;28;20049;-46
2024/01/19 06:14:02;;;;;;;9.45;3.65;;;;;;;-4.10;72.28;100458.19;4978268;28;20054;-54
2024/01/19 06:16:29;;;;;;;6.15;2.72;;;;;;;-4.13;72.73;100461.41;4975810;28;20407;-46
2024/01/19 06:18:58;;;;;;;4.60;1.77;;;;;;;-4.16;72.33;100457.03;4979259;28;20161;-49
2024/01/19 06:21:27;;;;;;;7.28;2.05;;;;;;;-4.19;72.69;100459.38;4975254;28;20097;-47
2024/01/19 06:23:53;;;;;;;5.05;3.30;;;;;;;-4.20;72.13;100460.16;4975087;28;20058;-46
2024/01/19 06:26:20;;;;;;;10.57;2.88;;;;;;;-4.21;71.94;100462.56;4975310;28;20133;-48
2024/01/19 06:28:47;;;;;;;4.18;2.55;;;;;;;-4.21;72.75;100467.63;4982637;28;20546;-51
2024/01/19 06:31:14;;;;;;;7.72;3.78;;;;;;;-4.21;72.51;100468.53;4978567;28;20050;-45
2024/01/19 06:33:40;;;;;;;6.18;3.20;;;;;;;-4.20;72.70;100465.22;4968692;28;20518;-48
2024/01/19 06:36:09;;;;;;;6.13;3.35;;;;;;;-4.20;72.94;100475.34;4979427;28;20042;-51
2024/01/19 06:38:36;;;;;;;5.68;4.13;;;;;;;-4.20;72.25;100480.38;4973477;28;20050;-48
2024/01/19 06:41:04;;;;;;;6.72;4.00;;;;;;;-4.18;72.24;100481.38;4972598;28;20515;-49
2024/01/19 06:43:31;;;;;;;5.68;3.33;;;;;;;-4.18;72.75;100488.97;4972229;28;20137;-48
2024/01/19 06:45:58;;;;;;;4.60;1.90;;;;;;;-4.17;72.83;100489.81;4976526;28;20511;-48
2024/01/19 06:48:25;;;;;;;4.20;2.45;;;;;;;-4.17;72.11;100495.78;4976423;28;20042;-46
2024/01/19 06:50:52;;;;;;;5.90;3.63;;;;;;;-4.16;72.58;100494.97;4979083;28;20074;-51
2024/01/19 06:53:18;;;;;;;4.57;3.35;;;;;;;-4.16;73.06;100494.97;4974193;28;20050;-50
2024/01/19 06:55:45;;;;;;;6.80;4.90;;;;;;;-4.16;72.86;100492.44;4976531;28;20050;-47
2024/01/19 06:58:12;;;;;;;4.97;2.55;;;;;;;-4.12;72.86;100488.47;4976094;28;20054;-47
2024/01/19 07:00:38;;;;;;;4.15;1.55;;;;;;;-4.10;72.96;100491.09;4975171;28;20514;-52
2024/01/19 07:03:05;;;;;;;5.10;3.90;;;;;;;-4.09;72.84;100486.13;4975459;28;20050;-49
2024/01/19 07:05:32;;;;;;;2.78;2.58;;;;;;;-4.09;72.67;100492.84;4973789;28;20053;-48
2024/01/19 07:08:01;;;;;;;5.95;3.28;;;;;;;-4.13;72.94;100500.25;4984725;28;20081;-46
2024/01/19 07:10:28;;;;;;;4.35;2.85;;;;;;;-4.14;72.79;100506.09;4971627;28;20054;-50
2024/01/19 07:12:55;;;;;;;3.55;2.10;;;;;;;-4.14;73.18;100502.69;4976256;28;20062;-48
2024/01/19 07:15:21;;;;;;;10.98;3.15;;;;;;;-4.13;73.12;100510.38;4977106;28;20050;-49
2024/01/19 07:17:48;;;;;;;9.15;3.20;;;;;;;-4.13;73.18;100512.91;4975697;28;20129;-54
2024/01/19 07:20:15;;;;;;;7.65;4.07;;;;;;;-4.13;72.99;100522.13;4961107;28;20979;-51
2024/01/19 07:22:42;;;;;;;6.55;3.45;;;;;;;-4.12;73.44;100513.78;4975682;28;20064;-47
2024/01/19 07:25:10;;;;;;;7.05;5.03;;;;;;;-4.12;73.13;100513.78;4967698;28;20057;-47
2024/01/19 07:27:37;;;;;;;4.80;1.88;;;;;;;-4.11;73.63;100519.69;4969573;28;20079;-51
2024/01/19 07:30:05;;;;;;;4.95;4.40;;;;;;;-4.10;72.83;100527.41;4968812;28;20054;-51
2024/01/19 07:32:33;;;;;;;8.82;6.38;;;;;;;-4.07;73.71;100524.19;4963239;28;20047;-51
2024/01/19 07:35:19;;;;;;;7.60;4.47;;;;;;;-4.02;73.79;100530.44;4961333;28;20138;-50
2024/01/19 07:37:46;;;;;;;9.65;5.03;;;;;;;-4.01;73.79;100535.56;4961800;28;20396;-53
2024/01/19 07:40:14;;;;;;;14.20;5.93;;;;;;;-4.00;72.91;100533.91;4957033;28;20051;-51
2024/01/19 07:42:40;;;;;;;8.93;4.28;;;;;;;-3.96;74.18;100540.94;4961628;28;20408;-45
2024/01/19 07:45:08;;;;;;;3.35;2.20;;;;;;;-3.93;73.27;100536.06;4959656;28;21525;-51
2024/01/19 07:47:35;;;;;;;7.28;5.13;;;;;;;-3.91;74.14;100533.63;4962133;28;20038;-46
2024/01/19 07:50:04;;;;;;;4.72;3.08;;;;;;;-3.89;74.47;100532.94;4956919;28;20122;-48
2024/01/19 07:52:31;;;;;;;3.10;2.15;;;;;;;-3.81;74.89;100532.56;4959531;28;20062;-50
2024/01/19 07:54:58;;;;;;;2.53;2.10;;;;;;;-3.79;74.42;100528.47;4958241;28;20143;-46
2024/01/19 07:57:27;;;;;;;3.22;1.73;;;;;;;-3.75;74.03;100527.91;4958327;28;20077;-46
2024/01/19 07:59:55;;;;;;;3.92;2.03;;;;;;;-3.73;74.20;100533.91;4960036;28;20055;-46
2024/01/19 08:02:22;;;;;;;3.67;2.13;;;;;;;-3.70;74.77;100539.19;4962552;28;20046;-48
2024/01/19 08:04:49;;;;;;;2.65;1.95;;;;;;;-3.69;74.23;100540.94;4961755;28;20515;-44
2024/01/19 08:07:16;;;;;;;3.75;2.17;;;;;;;-3.67;74.49;100546.97;4961791;28;20472;-52
2024/01/19 08:09:45;;;;;;;9.63;1.80;;;;;;;-3.66;74.28;100541.13;4968585;28;20043;-45
2024/01/19 08:12:12;;;;;;;4.68;3.35;;;;;;;-3.62;74.36;100543.06;4956447;28;20101;-48
2024/01/19 08:14:39;;;;;;;3.00;1.35;;;;;;;-3.56;74.33;100546.75;4967271;28;20054;-48
2024/01/19 08:17:08;;;;;;;5.50;1.73;;;;;;;-3.48;73.60;100545.56;4956205;28;20407;-46
2024/01/19 08:19:35;;;;;;;6.88;4.20;;;;;;;-3.34;74.61;100543.03;4959644;28;20054;-52
2024/01/19 08:22:02;;;;;;;6.18;1.92;;;;;;;-3.19;74.34;100543.97;4962274;28;20066;-44
2024/01/19 08:24:28;;;;;;;5.32;4.75;;;;;;;-3.06;73.60;100537.09;4961220;28;20046;-48
2024/01/19 08:26:55;;;;;;;3.08;2.78;;;;;;;-2.98;74.55;100543.50;4959744;28;20053;-49
2024/01/19 08:29:22;;;;;;;4.07;2.25;;;;;;;-2.89;73.93;100541.53;4961282;28;20137;-48
2024/01/19 08:31:51;;;;;;;5.07;2.35;;;;;;;-2.79;73.95;100542.09;4958138;28;20058;-48
2024/01/19 08:34:20;;;;;;;4.75;2.35;;;;;;;-2.66;74.45;100559.78;4962162;28;20638;-46
2024/01/19 08:36:47;;;;;;;1.27;0.75;;;;;;;-2.42;74.15;100564.53;4958648;28;20051;-49
2024/01/19 08:39:14;;;;;;;6.57;1.52;;;;;;;-2.26;74.51;100573.06;4955882;28;20499;-47
2024/01/19 08:41:42;;;;;;;3.92;3.17;;;;;;;-2.14;74.30;100573.75;4962276;28;20069;-48
2024/01/19 08:44:10;;;;;;;2.63;1.92;;;;;;;-1.98;74.12;100582.25;4957221;28;20055;-53
2024/01/19 08:46:45;;;;;;;4.00;3.35;;;;;;;-1.62;73.76;100579.16;4963472;28;20053;-48
2024/01/19 08:49:12;;;;;;;5.93;2.65;;;;;;;-1.21;73.29;100572.03;4967750;28;20059;-45
2024/01/19 08:51:39;;;;;;;5.35;3.22;;;;;;;-0.85;72.91;100573.91;4966255;28;20051;-48
2024/01/19 08:54:07;;;;;;;6.80;3.47;;;;;;;-0.50;72.84;100579.94;4962938;28;20061;-50
2024/01/19 08:56:34;;;;;;;3.42;1.92;;;;;;;-0.18;72.44;100578.13;4966670;28;20134;-50
2024/01/19 08:59:15;;;;;;;7.07;2.17;;;;;;;0.32;72.39;100574.53;4966327;28;20057;-50
2024/01/19 09:01:42;;;;;;;10.88;4.05;;;;;;;0.89;72.26;100576.28;4963233;28;20049;-48
2024/01/19 09:04:09;;;;;;;6.07;2.70;;;;;;;1.48;71.26;100577.97;4966785;28;20046;-46
2024/01/19 09:06:36;;;;;;;15.55;7.32;;;;;;;2.00;69.85;100580.97;4961976;28;20812;-52
2024/01/19 09:09:08;;;;;;;11.43;6.38;;;;;;;2.57;68.93;100584.94;4964090;28;20169;-49
2024/01/19 09:11:36;;;;;;;9.73;4.13;;;;;;;3.03;68.66;100580.66;4965598;28;20058;-50
2024/01/19 09:14:03;;;;;;;8.50;6.13;;;;;;;3.59;68.22;100587.72;4966463;28;20069;-52
2024/01/19 09:16:31;;;;;;;10.45;5.57;;;;;;;4.06;67.64;100584.16;4966529;28;20141;-48
2024/01/19 09:18:58;;;;;;;7.93;3.83;;;;;;;4.42;67.04;100581.88;4966675;28;20057;-49
2024/01/19 09:21:25;;;;;;;9.07;4.93;;;;;;;4.86;66.54;100577.19;4964893;28;20074;-50
2024/01/19 09:23:53;;;;;;;4.93;3.38;;;;;;;5.35;66.29;100583.66;4966000;28;20055;-50
2024/01/19 09:26:22;;;;;;;6.55;3.25;;;;;;;5.49;65.04;100577.22;4966501;28;20035;-53
2024/01/19 09:28:49;;;;;;;8.40;4.25;;;;;;;5.54;64.93;100585.03;4966156;28;20053;-48
2024/01/19 09:31:17;;;;;;;8.93;4.30;;;;;;;5.88;65.53;100601.31;4965347;28;20055;-47
2024/01/19 09:33:44;;;;;;;11.90;7.20;;;;;;;6.28;64.64;100598.91;4963539;28;20351;-51
2024/01/19 09:36:12;;;;;;;5.50;3.03;;;;;;;6.80;64.95;100594.91;4966494;28;20067;-51
2024/01/19 09:38:39;;;;;;;14.57;6.63;;;;;;;7.57;63.49;100597.28;4966486;28;20504;-49
2024/01/19 09:43:54;;;;;;;4.82;2.17;;;;;;;9.11;61.76;100593.59;5031497;27;20417;-47
2024/01/19 09:46:28;;;;;;;7.75;4.28;;;;;;;9.69;60.69;100592.50;5003458;28;20053;-49
2024/01/19 09:51:47;;;;;;;8.32;4.15;;;;;;;10.74;57.86;100596.75;5028954;27;20398;-51
2024/01/19 09:54:25;;;;;;;9.98;6.45;;;;;;;11.14;57.03;100601.28;5020848;28;20056;-54
2024/01/19 09:56:51;;;;;;;8.25;4.53;;;;;;;11.53;56.09;100600.53;5024758;28;20049;-52
2024/01/19 09:59:21;;;;;;;12.40;6.03;;;;;;;11.85;56.06;100609.22;5025634;28;20045;-51
2024/01/19 10:01:52;;;;;;;7.25;5.00;;;;;;;12.13;55.63;100598.88;5027307;28;20056;-51
2024/01/19 10:04:20;;;;;;;7.05;4.75;;;;;;;12.43;53.85;100602.31;5020158;28;20536;-49
2024/01/19 10:06:47;;;;;;;7.43;3.30;;;;;;;12.70;54.49;100616.13;5020254;28;20435;-54
2024/01/19 10:09:15;;;;;;;5.85;4.03;;;;;;;13.02;53.46;100612.56;5048444;28;20103;-52
2024/01/19 10:11:42;;;;;;;4.53;3.55;;;;;;;13.28;52.44;100608.97;5039983;28;20050;-53
2024/01/19 10:14:09;;;;;;;6.35;3.63;;;;;;;13.55;51.78;100617.53;5045369;28;20387;-51
2024/01/19 10:16:37;;;;;;;5.20;3.95;;;;;;;13.76;51.55;100620.88;5046399;28;20054;-53
2024/01/19 10:19:04;;;;;;;4.55;3.50;;;;;;;14.12;51.29;100624.06;5012985;28;20487;-49
2024/01/19 10:21:31;;;;;;;7.57;4.47;;;;;;;14.29;50.61;100620.47;5040844;28;20076;-49
2024/01/19 10:24:19;;;;;;;7.30;4.40;;;;;;;14.52;49.65;100621.97;5042164;28;20056;-54
2024/01/19 10:26:55;;;;;;;6.75;4.60;;;;;;;14.74;49.19;100621.75;5043553;28;20053;-52
2024/01/19 10:29:22;;;;;;;;;;;;;;;14.73;47.86;100630.47;5033073;28;21247;-54
2024/01/19 10:31:53;;;;;;;7.88;4.55;;;;;;;14.79;48.48;100625.19;5035449;28;19971;-47
2024/01/19 10:34:23;;;;;;;6.80;4.40;;;;;;;15.12;48.70;100633.53;5036153;28;20061;-50
2024/01/19 10:36:51;;;;;;;5.05;4.55;;;;;;;15.46;48.20;100632.22;5041646;28;20041;-56
2024/01/19 10:39:21;;;;;;;4.50;3.75;;;;;;;15.61;47.38;100635.50;5043697;28;20085;-54
2024/01/19 10:41:51;;;;;;;5.57;3.97;;;;;;;15.81;46.77;100643.91;5039332;28;20045;-57
2024/01/19 10:44:20;;;;;;;;;;;;;;;15.77;46.02;100641.38;5047379;28;20052;-52
2024/01/19 10:46:50;;;;;;;6.35;3.90;;;;;;;15.61;46.77;100631.16;5031552;28;19936;-52
2024/01/19 10:49:19;;;;;;;7.40;3.90;;;;;;;15.38;45.67;100634.06;5042624;28;20049;-55
2024/01/19 10:51:48;;;;;;;7.72;4.55;;;;;;;15.03;45.40;100633.66;5040603;28;20049;-53
2024/01/19 10:54:25;;;;;;;7.22;4.28;;;;;;;14.44;44.16;100632.50;5044257;28;20055;-52
2024/01/19 10:59:39;;;;;;;8.23;3.10;;;;;;;12.68;47.09;100623.94;5033149;27;20410;-52
2024/01/19 11:02:07;;;;;;;5.15;2.40;;;;;;;11.91;46.88;100623.06;5014732;28;20054;-50
2024/01/19 11:04:34;;;;;;;6.82;3.50;;;;;;;11.40;49.05;100630.75;5011261;28;20418;-50
2024/01/19 11:07:05;;;;;;;3.90;2.63;;;;;;;11.01;49.07;100631.44;5010482;28;20061;-55
2024/01/19 11:09:32;;;;;;;5.65;3.47;;;;;;;10.61;49.65;100629.50;5011734;28;20495;-51
2024/01/19 11:12:04;;;;;;;8.18;3.63;;;;;;;10.21;49.95;100621.41;5009121;28;20761;-52
2024/01/19 11:14:32;;;;;;;8.27;3.80;;;;;;;9.83;50.25;100625.41;5011019;28;20062;-49
2024/01/19 11:17:01;;;;;;;4.75;2.00;;;;;;;9.56;50.61;100622.53;5011369;28;20046;-53
2024/01/19 11:19:30;;;;;;;5.78;4.88;;;;;;;9.33;50.80;100625.75;5011411;28;20045;-46
2024/01/19 11:22:00;;;;;;;3.65;1.27;;;;;;;8.99;51.02;100628.78;5019687;28;20096;-50
2024/01/19 11:24:32;;;;;;;4.80;2.42;;;;;;;8.70;52.09;100631.84;5006144;28;21261;-55
2024/01/19 11:27:23;;;;;;;5.68;4.03;;;;;;;8.29;52.25;100638.06;5010809;28;20038;-51
2024/01/19 11:29:59;;;;;;;6.32;4.15;;;;;;;8.04;53.40;100635.06;5010614;28;20045;-49
2024/01/19 11:32:26;;;;;;;8.90;5.50;;;;;;;7.78;53.83;100642.34;5014544;28;20124;-51
2024/01/19 11:34:53;;;;;;;6.57;4.50;;;;;;;7.52;53.72;100640.13;5013926;28;20048;-50
2024/01/19 11:43:00;;;;;;;10.90;6.45;;;;;;;6.71;55.20;100641.91;5086046;27;20402;-48
2024/01/19 11:48:04;;;;;;;7.20;3.10;;;;;;;6.89;54.77;100631.16;5023360;27;20406;-54